首页
METAR-TAF:

METAR-TAF

机场 :

布萊茲諾頓皇家空軍基地

Brize Norton, 英格兰

纬度: 51-45N, 经度: 001-35W, 海拔: 88米

当前天气观测

该预报发布于23分钟前的16:50 UTC
风速8节,风向东北
温度 24°C
湿度 34%
气压 1021 hPa
能见度10公里或以上
1500米以下无云,无积雨云

METAR: EGVN 011650Z 05008KT CAVOK 24/07 Q1021 NOSIG RMK BLU BLU

时间: 18:13 (17:13 UTC)

预报

该预报发布于3小时和58分钟前的13:15 UTC
预报有效从01日的 15点(UTC)到 02日的 15点(UTC)
风速10节,风向东北
能见度10公里或以上
1500米以下无云,无积雨云

TAF: EGVN 011315Z 0115/0215 05010KT CAVOK

超过4000个机场的气象观测和天气预报(METAR&TAF报告)。

可查询的气象台以黄色和红色小点在地图上表示。

将鼠标移到小点上方,可查看气象台名称。

然后点击查看天气观测和预报。

如需切换地图:点击带黑十字的绿色按钮放大地图;点击带横线的绿色按钮缩小地图;或者点击绿色箭头查看邻近地区的地图。


METAR-TAF: